createdAt,value
2017-12-10T00:00:04.887Z,3.07
2017-12-10T00:00:30.994Z,3.11
2017-12-10T00:00:57.100Z,2.97
2017-12-10T00:01:23.225Z,2.95
2017-12-10T00:01:49.329Z,3.04
2017-12-10T00:02:15.435Z,3.08
2017-12-10T00:02:41.544Z,3.1
2017-12-10T00:03:07.654Z,2.95
2017-12-10T00:03:33.758Z,3.08
2017-12-10T00:03:59.864Z,3.01
2017-12-10T00:04:25.971Z,3.07
2017-12-10T00:04:52.078Z,3.03
2017-12-10T00:05:18.184Z,2.97
2017-12-10T00:05:44.309Z,2.98
2017-12-10T00:06:10.420Z,2.98
2017-12-10T00:06:36.526Z,3.07
2017-12-10T00:07:02.632Z,2.85
2017-12-10T00:07:28.737Z,2.89
2017-12-10T00:07:54.843Z,2.85
2017-12-10T00:08:20.952Z,2.97
2017-12-10T00:08:47.059Z,3.04
2017-12-10T00:09:13.166Z,3.01
2017-12-10T00:09:39.273Z,3.04
2017-12-10T00:10:05.382Z,3.04
2017-12-10T00:10:31.486Z,3.11
2017-12-10T00:10:57.593Z,3.13
2017-12-10T00:11:23.718Z,3.16
2017-12-10T00:11:49.823Z,3.08
2017-12-10T00:12:15.932Z,3.05
2017-12-10T00:12:42.038Z,3.11
2017-12-10T00:13:08.146Z,3.07
2017-12-10T00:13:34.273Z,3.03
2017-12-10T00:14:00.378Z,3.08
2017-12-10T00:14:26.484Z,3.03
2017-12-10T00:14:52.593Z,3
2017-12-10T00:15:18.701Z,2.85
2017-12-10T00:15:44.827Z,2.86
2017-12-10T00:16:10.932Z,2.83
2017-12-10T00:16:37.039Z,2.89
2017-12-10T00:17:03.147Z,2.87
2017-12-10T00:17:29.252Z,2.87
2017-12-10T00:17:55.378Z,2.83
2017-12-10T00:18:21.503Z,2.93
2017-12-10T00:18:47.610Z,2.92
2017-12-10T00:19:13.716Z,2.8
2017-12-10T00:19:39.822Z,2.71
2017-12-10T00:20:05.928Z,2.72
2017-12-10T00:20:32.036Z,2.85
2017-12-10T00:20:58.143Z,2.89
2017-12-10T00:21:24.251Z,2.79
2017-12-10T00:21:50.370Z,2.85
2017-12-10T00:22:16.467Z,2.85
2017-12-10T00:22:42.575Z,2.86
2017-12-10T00:23:08.699Z,2.87
2017-12-10T00:23:34.806Z,2.86
2017-12-10T00:24:00.914Z,2.85
2017-12-10T00:24:27.019Z,2.8
2017-12-10T00:24:53.125Z,2.87
2017-12-10T00:25:19.248Z,2.89
2017-12-10T00:25:45.353Z,2.83
2017-12-10T00:26:11.461Z,2.86
2017-12-10T00:26:37.567Z,2.83
2017-12-10T00:27:03.673Z,2.97
2017-12-10T00:27:29.780Z,2.93
2017-12-10T00:27:55.888Z,2.93
2017-12-10T00:28:22.011Z,3
2017-12-10T00:28:48.117Z,2.95
2017-12-10T00:29:14.227Z,3
2017-12-10T00:29:40.336Z,2.9
2017-12-10T00:30:06.443Z,2.89
2017-12-10T00:30:32.550Z,2.95
2017-12-10T00:30:58.654Z,2.87
2017-12-10T00:31:24.763Z,2.89
2017-12-10T00:31:50.868Z,2.92
2017-12-10T00:32:16.976Z,2.86
2017-12-10T00:32:43.082Z,2.87
2017-12-10T00:33:09.189Z,2.86
2017-12-10T00:33:35.296Z,2.87
2017-12-10T00:34:01.425Z,2.85
2017-12-10T00:34:27.548Z,2.87
2017-12-10T00:34:53.655Z,2.89
2017-12-10T00:35:19.762Z,2.77
2017-12-10T00:35:45.868Z,2.86
2017-12-10T00:36:11.975Z,2.85
2017-12-10T00:36:38.082Z,2.9
2017-12-10T00:37:04.191Z,3
2017-12-10T00:37:30.296Z,2.82
2017-12-10T00:37:56.404Z,2.92
2017-12-10T00:38:22.513Z,2.97
2017-12-10T00:38:48.621Z,2.93
2017-12-10T00:39:14.726Z,2.93
2017-12-10T00:39:40.838Z,2.82
2017-12-10T00:40:06.943Z,2.97
2017-12-10T00:40:33.048Z,2.97
2017-12-10T00:40:59.154Z,2.93
2017-12-10T00:41:25.281Z,2.8
2017-12-10T00:41:51.387Z,2.95
2017-12-10T00:42:17.495Z,2.82
2017-12-10T00:42:43.619Z,2.87
2017-12-10T00:43:09.724Z,2.86
2017-12-10T00:43:35.832Z,2.95
2017-12-10T00:44:01.941Z,2.9
2017-12-10T00:44:28.048Z,2.82
2017-12-10T00:44:54.153Z,2.74
2017-12-10T00:45:20.261Z,2.74
2017-12-10T00:45:46.369Z,2.85
2017-12-10T00:46:12.484Z,2.87
2017-12-10T00:46:38.582Z,2.79
2017-12-10T00:47:04.689Z,2.74
2017-12-10T00:47:30.799Z,2.74
2017-12-10T00:47:56.902Z,2.74
2017-12-10T00:48:23.011Z,2.79
2017-12-10T00:48:49.117Z,2.74
2017-12-10T00:49:15.224Z,2.87
2017-12-10T00:49:41.330Z,2.71
2017-12-10T00:50:07.435Z,2.74
2017-12-10T00:50:33.541Z,2.71
2017-12-10T00:50:59.648Z,2.85
2017-12-10T00:51:25.774Z,2.72
2017-12-10T00:51:51.882Z,2.72
2017-12-10T00:52:17.991Z,2.75
2017-12-10T00:52:44.100Z,2.72
2017-12-10T00:53:10.202Z,2.83
2017-12-10T00:53:36.309Z,2.9
2017-12-10T00:54:02.416Z,2.79
2017-12-10T00:54:28.522Z,2.72
2017-12-10T00:54:54.628Z,2.74
2017-12-10T00:55:20.738Z,2.89
2017-12-10T00:55:46.844Z,2.72
2017-12-10T00:56:12.950Z,2.69
2017-12-10T00:56:39.057Z,2.77
2017-12-10T00:57:05.163Z,2.79
2017-12-10T00:57:31.269Z,2.79
2017-12-10T00:57:57.377Z,2.85
2017-12-10T00:58:23.497Z,2.87
2017-12-10T00:58:49.613Z,2.71
2017-12-10T00:59:15.725Z,2.77
2017-12-10T00:59:41.851Z,2.82
2017-12-10T01:00:07.957Z,2.72
2017-12-10T01:00:34.067Z,2.85
2017-12-10T01:01:00.174Z,2.93
2017-12-10T01:01:26.279Z,2.93
2017-12-10T01:01:52.387Z,2.89
2017-12-10T01:02:18.499Z,2.85
2017-12-10T01:02:44.601Z,2.77
2017-12-10T01:03:10.713Z,2.83
2017-12-10T01:03:36.815Z,2.79
2017-12-10T01:04:02.923Z,2.72
2017-12-10T01:04:29.028Z,2.74
2017-12-10T01:04:55.136Z,2.85
2017-12-10T01:05:21.245Z,2.82
2017-12-10T01:05:47.364Z,2.89
2017-12-10T01:06:13.496Z,2.87
2017-12-10T01:06:39.605Z,2.85
2017-12-10T01:07:05.718Z,2.89
2017-12-10T01:07:31.826Z,2.83
2017-12-10T01:07:57.940Z,2.9
2017-12-10T01:08:24.076Z,2.97
2017-12-10T01:08:50.194Z,2.93
2017-12-10T01:09:16.324Z,2.86
2017-12-10T01:09:42.440Z,2.87
2017-12-10T01:10:08.553Z,2.93
2017-12-10T01:10:34.669Z,2.87
2017-12-10T01:11:00.775Z,2.86
2017-12-10T01:11:26.884Z,2.89
2017-12-10T01:11:52.988Z,2.87
2017-12-10T01:12:19.095Z,2.85
2017-12-10T01:12:45.201Z,2.89
2017-12-10T01:13:11.340Z,2.83
2017-12-10T01:13:37.456Z,2.77
2017-12-10T01:14:03.573Z,2.71
2017-12-10T01:14:29.681Z,2.79
2017-12-10T01:14:55.817Z,2.72
2017-12-10T01:15:21.924Z,2.86
2017-12-10T01:15:48.040Z,2.75
2017-12-10T01:16:14.156Z,2.62
2017-12-10T01:16:40.265Z,2.62
2017-12-10T01:17:06.381Z,2.74
2017-12-10T01:17:32.494Z,2.72
2017-12-10T01:17:58.604Z,2.74
2017-12-10T01:18:24.715Z,2.86
2017-12-10T01:18:50.842Z,2.79
2017-12-10T01:19:16.954Z,2.82
2017-12-10T01:19:43.089Z,2.9
2017-12-10T01:20:09.214Z,2.87
2017-12-10T01:20:35.336Z,2.89
2017-12-10T01:21:01.450Z,2.8
2017-12-10T01:21:27.566Z,2.97
2017-12-10T01:21:53.674Z,2.93
2017-12-10T01:22:19.791Z,2.95
2017-12-10T01:22:45.899Z,2.97
2017-12-10T01:23:12.018Z,2.82
2017-12-10T01:23:38.134Z,2.93
2017-12-10T01:24:04.243Z,2.97
2017-12-10T01:24:30.361Z,3.01
2017-12-10T01:24:56.473Z,2.93
2017-12-10T01:25:22.590Z,2.95
2017-12-10T01:25:48.700Z,2.97
2017-12-10T01:26:14.819Z,2.97
2017-12-10T01:26:40.930Z,2.93
2017-12-10T01:27:07.043Z,3
2017-12-10T01:27:33.158Z,3.03
2017-12-10T01:27:59.290Z,2.87
2017-12-10T01:28:25.409Z,2.9
2017-12-10T01:28:51.521Z,2.87
2017-12-10T01:29:17.638Z,2.89
2017-12-10T01:29:43.754Z,2.87
2017-12-10T01:30:09.884Z,2.98
2017-12-10T01:30:36.003Z,2.93
2017-12-10T01:31:02.113Z,2.87
2017-12-10T01:31:28.223Z,2.9
2017-12-10T01:31:54.341Z,2.77
2017-12-10T01:32:20.452Z,2.71
2017-12-10T01:32:46.570Z,2.75
2017-12-10T01:33:12.679Z,2.85
2017-12-10T01:33:38.795Z,2.79
2017-12-10T01:34:04.911Z,2.89
2017-12-10T01:34:31.026Z,2.9
2017-12-10T01:34:57.142Z,2.82
2017-12-10T01:35:23.249Z,2.87
2017-12-10T01:35:49.364Z,2.87
2017-12-10T01:36:15.483Z,2.87
2017-12-10T01:36:41.593Z,2.86
2017-12-10T01:37:07.720Z,2.89
2017-12-10T01:37:33.835Z,2.83
2017-12-10T01:37:59.976Z,2.85
2017-12-10T01:38:26.091Z,2.79
2017-12-10T01:38:52.201Z,2.83
2017-12-10T01:39:18.317Z,2.83
2017-12-10T01:39:44.430Z,2.85
2017-12-10T01:40:10.543Z,2.82
2017-12-10T01:40:36.661Z,2.82
2017-12-10T01:41:02.776Z,2.8
2017-12-10T01:41:28.893Z,2.85
2017-12-10T01:41:55.000Z,2.97
2017-12-10T01:42:21.119Z,2.82
2017-12-10T01:42:47.228Z,2.97
2017-12-10T01:43:13.337Z,2.93
2017-12-10T01:43:39.456Z,2.89
2017-12-10T01:44:05.574Z,2.97
2017-12-10T01:44:31.688Z,2.79
2017-12-10T01:44:57.799Z,2.93
2017-12-10T01:45:23.910Z,2.87
2017-12-10T01:45:50.028Z,2.85
2017-12-10T01:46:16.140Z,2.89
2017-12-10T01:46:42.254Z,2.85
2017-12-10T01:47:08.366Z,2.86
2017-12-10T01:47:34.485Z,2.87
2017-12-10T01:48:00.593Z,2.89
2017-12-10T01:48:26.709Z,2.87
2017-12-10T01:48:52.818Z,2.97
2017-12-10T01:49:18.931Z,2.92
2017-12-10T01:49:45.048Z,2.98
2017-12-10T01:50:11.157Z,2.87
2017-12-10T01:50:37.268Z,2.75
2017-12-10T01:51:03.386Z,2.9
2017-12-10T01:51:29.513Z,2.8
2017-12-10T01:51:55.632Z,2.74
2017-12-10T01:52:21.749Z,2.82
2017-12-10T01:52:47.863Z,2.71
2017-12-10T01:53:13.971Z,2.85
2017-12-10T01:53:40.088Z,2.87
2017-12-10T01:54:06.203Z,2.86
2017-12-10T01:54:32.312Z,2.92
2017-12-10T01:54:58.633Z,2.75
2017-12-10T01:55:24.745Z,2.71
2017-12-10T01:55:50.857Z,2.74
2017-12-10T01:56:16.972Z,2.77
2017-12-10T01:56:43.083Z,2.75
2017-12-10T01:57:09.202Z,2.85
2017-12-10T01:57:35.314Z,2.83
2017-12-10T01:58:01.434Z,2.85
2017-12-10T01:58:27.542Z,2.87
2017-12-10T01:58:53.658Z,2.9
2017-12-10T01:59:19.778Z,2.87
2017-12-10T01:59:45.887Z,2.9
2017-12-10T02:00:12.021Z,3.01
2017-12-10T02:00:38.138Z,2.98
2017-12-10T02:01:04.257Z,3.05
2017-12-10T02:01:30.390Z,3
2017-12-10T02:01:56.890Z,3.01
2017-12-10T02:02:23.026Z,3.08
2017-12-10T02:02:49.139Z,3.03
2017-12-10T02:03:15.255Z,3
2017-12-10T02:03:41.374Z,2.98
2017-12-10T02:04:07.486Z,2.93
2017-12-10T02:04:33.620Z,2.95
2017-12-10T02:04:59.730Z,2.9
2017-12-10T02:05:25.867Z,2.85
2017-12-10T02:05:51.976Z,2.85
2017-12-10T02:06:18.099Z,3.01
2017-12-10T02:06:44.206Z,2.97
2017-12-10T02:07:10.315Z,2.98
2017-12-10T02:07:36.430Z,3
2017-12-10T02:08:02.545Z,3.07
2017-12-10T02:08:28.662Z,3.03
2017-12-10T02:08:54.775Z,3.07
2017-12-10T02:09:20.888Z,3.01
2017-12-10T02:09:47.053Z,2.97
2017-12-10T02:10:13.114Z,2.95
2017-12-10T02:10:39.229Z,3.01
2017-12-10T02:11:05.337Z,3.07
2017-12-10T02:11:31.449Z,3.04
2017-12-10T02:11:57.573Z,3.07
2017-12-10T02:12:23.710Z,3.03
2017-12-10T02:12:49.828Z,3
2017-12-10T02:13:15.964Z,3.04
2017-12-10T02:13:42.078Z,3.04
2017-12-10T02:14:08.190Z,3.1
2017-12-10T02:14:34.301Z,3.04
2017-12-10T02:15:00.415Z,3.04
2017-12-10T02:15:26.531Z,3.07
2017-12-10T02:15:52.644Z,3.22
2017-12-10T02:16:18.773Z,3.14
2017-12-10T02:16:44.883Z,3.28
2017-12-10T02:17:10.996Z,3.23
2017-12-10T02:17:37.113Z,3.36
2017-12-10T02:18:03.221Z,3.36
2017-12-10T02:18:29.337Z,3.22
2017-12-10T02:18:55.449Z,3.21
2017-12-10T02:19:21.568Z,3.25
2017-12-10T02:19:47.678Z,3.28
2017-12-10T02:20:13.819Z,3.4
2017-12-10T02:20:39.932Z,3.42
2017-12-10T02:21:06.043Z,3.22
2017-12-10T02:21:32.160Z,3.36
2017-12-10T02:21:58.296Z,3.42
2017-12-10T02:22:24.408Z,3.51
2017-12-10T02:22:50.519Z,3.53
2017-12-10T02:23:16.657Z,3.63
2017-12-10T02:23:42.754Z,3.63
2017-12-10T02:24:08.864Z,3.68
2017-12-10T02:24:34.981Z,3.58
2017-12-10T02:25:01.092Z,3.56
2017-12-10T02:25:27.238Z,3.65
2017-12-10T02:25:53.354Z,3.81
2017-12-10T02:26:19.462Z,3.68
2017-12-10T02:26:45.587Z,3.77
2017-12-10T02:27:11.697Z,3.68
2017-12-10T02:27:37.807Z,3.77
2017-12-10T02:28:03.926Z,3.68
2017-12-10T02:28:30.035Z,3.68
2017-12-10T02:28:56.149Z,3.51
2017-12-10T02:29:22.277Z,3.51
2017-12-10T02:29:48.395Z,3.68
2017-12-10T02:30:14.508Z,3.65
2017-12-10T02:30:40.618Z,3.58
2017-12-10T02:31:06.729Z,3.65
2017-12-10T02:31:32.868Z,3.56
2017-12-10T02:31:58.980Z,3.65
2017-12-10T02:32:25.090Z,3.76
2017-12-10T02:32:51.236Z,3.65
2017-12-10T02:33:17.356Z,3.66
2017-12-10T02:33:43.468Z,3.66
2017-12-10T02:34:09.583Z,3.63
2017-12-10T02:34:35.737Z,3.5
2017-12-10T02:35:01.867Z,3.56
2017-12-10T02:35:27.984Z,3.55
2017-12-10T02:35:54.095Z,3.58
2017-12-10T02:36:20.204Z,3.59
2017-12-10T02:36:46.363Z,3.59
2017-12-10T02:37:12.499Z,3.66
2017-12-10T02:37:38.609Z,3.7
2017-12-10T02:38:04.727Z,3.66
2017-12-10T02:38:30.846Z,3.76
2017-12-10T02:38:57.020Z,3.6
2017-12-10T02:39:23.168Z,3.78
2017-12-10T02:39:49.310Z,3.77
2017-12-10T02:40:15.449Z,3.8
2017-12-10T02:40:41.603Z,3.8
2017-12-10T02:41:07.712Z,3.74
2017-12-10T02:41:33.850Z,3.68
2017-12-10T02:42:00.021Z,3.73
2017-12-10T02:42:26.151Z,3.77
2017-12-10T02:42:52.278Z,3.76
2017-12-10T02:43:18.433Z,3.59
2017-12-10T02:43:44.542Z,3.78
2017-12-10T02:44:10.682Z,3.65
2017-12-10T02:44:36.821Z,3.77
2017-12-10T02:45:02.957Z,3.73
2017-12-10T02:45:29.131Z,3.66
2017-12-10T02:45:55.244Z,3.7
2017-12-10T02:46:21.353Z,3.74
2017-12-10T02:46:47.474Z,3.77
2017-12-10T02:47:13.591Z,3.8
2017-12-10T02:47:39.708Z,3.73
2017-12-10T02:48:06.368Z,3.83
2017-12-10T02:48:32.541Z,3.83
2017-12-10T02:48:58.670Z,3.84
2017-12-10T02:49:24.784Z,3.8
2017-12-10T02:49:50.899Z,3.78
2017-12-10T02:50:17.012Z,3.76
2017-12-10T02:50:43.130Z,3.59
2017-12-10T02:51:09.243Z,3.69
2017-12-10T02:51:35.364Z,3.68
2017-12-10T02:52:01.623Z,3.76
2017-12-10T02:52:27.857Z,3.68
2017-12-10T02:52:54.194Z,3.5
2017-12-10T02:53:20.443Z,3.65
2017-12-10T02:53:46.508Z,3.76
2017-12-10T02:54:12.696Z,3.62
2017-12-10T02:54:38.837Z,3.73
2017-12-10T02:55:05.013Z,3.78
2017-12-10T02:55:31.144Z,3.62
2017-12-10T02:55:57.360Z,3.73
2017-12-10T02:56:23.470Z,3.69
2017-12-10T02:56:49.588Z,3.74
2017-12-10T02:57:15.711Z,3.6
2017-12-10T02:57:41.891Z,3.76
2017-12-10T02:58:08.220Z,3.59
2017-12-10T02:58:34.414Z,3.81
2017-12-10T02:59:00.533Z,3.65
2017-12-10T02:59:26.650Z,3.6
2017-12-10T02:59:52.764Z,3.65
2017-12-10T03:00:18.873Z,3.63
2017-12-10T03:00:44.991Z,3.62
2017-12-10T03:01:11.098Z,3.68
2017-12-10T03:01:37.264Z,3.59
2017-12-10T03:02:03.372Z,3.62
2017-12-10T03:02:29.482Z,3.7
2017-12-10T03:02:55.629Z,3.81
2017-12-10T03:03:21.747Z,3.68
2017-12-10T03:03:47.915Z,3.63
2017-12-10T03:04:14.026Z,3.5
2017-12-10T03:04:40.142Z,3.58
2017-12-10T03:05:06.252Z,3.5
2017-12-10T03:05:32.415Z,3.48
2017-12-10T03:05:58.524Z,3.55
2017-12-10T03:06:24.639Z,3.56
2017-12-10T03:06:50.754Z,3.58
2017-12-10T03:07:16.897Z,3.51
2017-12-10T03:07:43.052Z,3.56
2017-12-10T03:08:09.237Z,3.58
2017-12-10T03:08:35.361Z,3.5
2017-12-10T03:09:01.475Z,3.65
2017-12-10T03:09:27.589Z,3.65
2017-12-10T03:09:53.703Z,3.65
2017-12-10T03:10:19.813Z,3.66
2017-12-10T03:10:45.954Z,3.77
2017-12-10T03:11:12.270Z,3.68
2017-12-10T03:11:38.403Z,3.63
2017-12-10T03:12:04.522Z,3.62
2017-12-10T03:12:30.632Z,3.66
2017-12-10T03:12:56.747Z,3.69
2017-12-10T03:13:22.914Z,3.65
2017-12-10T03:13:49.033Z,3.66
2017-12-10T03:14:15.136Z,3.69
2017-12-10T03:14:41.255Z,3.66
2017-12-10T03:15:07.586Z,3.69
2017-12-10T03:15:33.720Z,3.66
2017-12-10T03:15:59.847Z,3.78
2017-12-10T03:16:25.956Z,3.63
2017-12-10T03:16:52.069Z,3.76
2017-12-10T03:17:18.208Z,3.88
2017-12-10T03:17:44.344Z,3.91
2017-12-10T03:18:10.456Z,3.76
2017-12-10T03:18:36.569Z,3.65
2017-12-10T03:19:02.700Z,3.7
2017-12-10T03:19:28.833Z,3.68
2017-12-10T03:19:54.958Z,3.81
2017-12-10T03:20:21.076Z,3.65
2017-12-10T03:20:47.194Z,3.69
2017-12-10T03:21:13.669Z,3.77
2017-12-10T03:21:40.088Z,3.74
2017-12-10T03:22:06.205Z,3.78
2017-12-10T03:22:32.340Z,3.86
2017-12-10T03:22:58.451Z,3.81
2017-12-10T03:23:24.562Z,3.81
2017-12-10T03:23:50.754Z,3.68
2017-12-10T03:24:16.869Z,3.81
2017-12-10T03:24:42.986Z,3.74
2017-12-10T03:25:09.108Z,3.69
2017-12-10T03:25:35.226Z,3.63
2017-12-10T03:26:01.338Z,3.63
2017-12-10T03:26:27.447Z,3.62
2017-12-10T03:26:53.561Z,3.63
2017-12-10T03:27:19.700Z,3.68
2017-12-10T03:27:45.810Z,3.65
2017-12-10T03:28:11.927Z,3.65
2017-12-10T03:28:38.044Z,3.66
2017-12-10T03:29:04.155Z,3.7
2017-12-10T03:29:30.270Z,3.66
2017-12-10T03:29:56.389Z,3.62
2017-12-10T03:30:22.500Z,3.77
2017-12-10T03:30:48.630Z,3.63
2017-12-10T03:31:14.749Z,3.68
2017-12-10T03:31:40.857Z,3.68
2017-12-10T03:32:06.975Z,3.73
2017-12-10T03:32:33.087Z,3.63
2017-12-10T03:32:59.221Z,3.68
2017-12-10T03:33:25.333Z,3.77
2017-12-10T03:33:51.443Z,3.7
2017-12-10T03:34:17.561Z,3.76
2017-12-10T03:34:43.672Z,3.87
2017-12-10T03:35:09.789Z,3.73
2017-12-10T03:35:35.904Z,3.63
2017-12-10T03:36:02.015Z,3.6
2017-12-10T03:36:28.127Z,3.69
2017-12-10T03:36:54.244Z,3.65
2017-12-10T03:37:20.363Z,3.77
2017-12-10T03:37:46.472Z,3.78
2017-12-10T03:38:12.608Z,3.78
2017-12-10T03:38:38.719Z,3.77
2017-12-10T03:39:04.832Z,3.63
2017-12-10T03:39:30.946Z,3.62
2017-12-10T03:39:57.060Z,3.74
2017-12-10T03:40:23.202Z,3.7
2017-12-10T03:40:49.311Z,3.68
2017-12-10T03:41:15.423Z,3.68
2017-12-10T03:41:41.537Z,3.73
2017-12-10T03:42:07.656Z,3.7
2017-12-10T03:42:33.767Z,3.62
2017-12-10T03:42:59.889Z,3.68
2017-12-10T03:43:26.001Z,3.69
2017-12-10T03:43:52.118Z,3.74
2017-12-10T03:44:18.226Z,3.59
2017-12-10T03:44:44.335Z,3.53
2017-12-10T03:45:10.453Z,3.59
2017-12-10T03:45:36.568Z,3.56
2017-12-10T03:46:02.677Z,3.62
2017-12-10T03:46:28.790Z,3.65
2017-12-10T03:46:54.908Z,3.65
2017-12-10T03:47:21.041Z,3.69
2017-12-10T03:47:47.150Z,3.68
2017-12-10T03:48:13.268Z,3.74
2017-12-10T03:48:39.402Z,3.69
2017-12-10T03:49:05.516Z,3.68
2017-12-10T03:49:31.627Z,3.63
2017-12-10T03:49:57.739Z,3.7
2017-12-10T03:50:23.855Z,3.74
2017-12-10T03:50:49.972Z,3.74
2017-12-10T03:51:16.086Z,3.66
2017-12-10T03:51:42.192Z,3.66
2017-12-10T03:52:08.313Z,3.55
2017-12-10T03:52:34.428Z,3.5
2017-12-10T03:53:00.540Z,3.58
2017-12-10T03:53:26.653Z,3.55
2017-12-10T03:53:52.772Z,3.56
2017-12-10T03:54:18.889Z,3.55
2017-12-10T03:54:44.996Z,3.55
2017-12-10T03:55:11.110Z,3.59
2017-12-10T03:55:37.228Z,3.65
2017-12-10T03:56:03.338Z,3.68
2017-12-10T03:56:29.463Z,3.68
2017-12-10T03:56:55.567Z,3.74
2017-12-10T03:57:21.686Z,3.7
2017-12-10T03:57:47.801Z,3.65
2017-12-10T03:58:13.928Z,3.7
2017-12-10T03:58:40.037Z,3.66
2017-12-10T03:59:06.156Z,3.73
2017-12-10T03:59:32.274Z,3.74
2017-12-10T03:59:58.383Z,3.65
2017-12-10T04:00:24.495Z,3.65
2017-12-10T04:00:50.614Z,3.7
2017-12-10T04:01:16.727Z,3.62
2017-12-10T04:01:42.838Z,3.62
2017-12-10T04:02:08.958Z,3.66
2017-12-10T04:02:35.095Z,3.63
2017-12-10T04:03:01.211Z,3.68
2017-12-10T04:03:27.322Z,3.74
2017-12-10T04:03:53.434Z,3.63
2017-12-10T04:04:19.544Z,3.78
2017-12-10T04:04:45.665Z,3.66
2017-12-10T04:05:11.777Z,3.68
2017-12-10T04:05:37.886Z,3.68
2017-12-10T04:06:04.008Z,3.69
2017-12-10T04:06:30.122Z,3.66
2017-12-10T04:06:56.230Z,3.66
2017-12-10T04:07:22.349Z,3.63
2017-12-10T04:07:48.478Z,3.68
2017-12-10T04:08:14.624Z,3.66
2017-12-10T04:08:40.734Z,3.7
2017-12-10T04:09:06.853Z,3.62
2017-12-10T04:09:32.965Z,3.68
2017-12-10T04:09:59.083Z,3.69
2017-12-10T04:10:25.193Z,3.65
2017-12-10T04:10:51.309Z,3.76
2017-12-10T04:11:17.424Z,3.63
2017-12-10T04:11:43.536Z,3.63
2017-12-10T04:12:09.656Z,3.68
2017-12-10T04:12:35.777Z,3.62
2017-12-10T04:13:01.885Z,3.66
2017-12-10T04:13:27.999Z,3.62
2017-12-10T04:13:54.109Z,3.62
2017-12-10T04:14:20.221Z,3.55
2017-12-10T04:14:46.337Z,3.62
2017-12-10T04:15:12.457Z,3.5
2017-12-10T04:15:38.567Z,3.55
2017-12-10T04:16:04.686Z,3.55
2017-12-10T04:16:30.798Z,3.51
2017-12-10T04:16:56.910Z,3.42
2017-12-10T04:17:23.025Z,3.53
2017-12-10T04:17:49.140Z,3.51
2017-12-10T04:18:15.251Z,3.56
2017-12-10T04:18:41.389Z,3.51
2017-12-10T04:19:07.499Z,3.56
2017-12-10T04:19:33.611Z,3.65
2017-12-10T04:19:59.730Z,3.55
2017-12-10T04:20:25.841Z,3.59
2017-12-10T04:20:51.960Z,3.62
2017-12-10T04:21:18.070Z,3.62
2017-12-10T04:21:44.186Z,3.59
2017-12-10T04:22:10.322Z,3.5
2017-12-10T04:22:36.445Z,3.68
2017-12-10T04:23:02.556Z,3.62
2017-12-10T04:23:28.665Z,3.51
2017-12-10T04:23:54.785Z,3.44
2017-12-10T04:24:20.907Z,3.55
2017-12-10T04:24:47.022Z,3.51
2017-12-10T04:25:13.141Z,3.53
2017-12-10T04:25:39.252Z,3.51
2017-12-10T04:26:05.363Z,3.4
2017-12-10T04:26:31.476Z,3.44
2017-12-10T04:26:57.587Z,3.53
2017-12-10T04:27:23.746Z,3.42
2017-12-10T04:27:49.818Z,3.42
2017-12-10T04:28:15.936Z,3.47
2017-12-10T04:28:42.059Z,3.42
2017-12-10T04:29:08.170Z,3.4
2017-12-10T04:29:34.281Z,3.31
2017-12-10T04:30:00.389Z,3.25
2017-12-10T04:30:26.507Z,3.25
2017-12-10T04:30:52.623Z,3.29
2017-12-10T04:31:18.733Z,3.29
2017-12-10T04:31:44.868Z,3.18
2017-12-10T04:32:10.978Z,3.11
2017-12-10T04:32:37.116Z,3.13
2017-12-10T04:33:03.229Z,3.08
2017-12-10T04:33:29.344Z,3.08
2017-12-10T04:33:55.463Z,3.11
2017-12-10T04:34:21.580Z,3.16
2017-12-10T04:34:47.688Z,3.18
2017-12-10T04:35:13.802Z,3.19
2017-12-10T04:35:39.919Z,3.21
2017-12-10T04:36:06.030Z,3.16
2017-12-10T04:36:32.149Z,3.21
2017-12-10T04:36:58.278Z,3.28
2017-12-10T04:37:24.397Z,3.21
2017-12-10T04:37:50.514Z,3.19
2017-12-10T04:38:16.622Z,3.13
2017-12-10T04:38:42.741Z,3.16
2017-12-10T04:39:08.853Z,3.13
2017-12-10T04:39:34.966Z,3.08
2017-12-10T04:40:01.077Z,3.1
2017-12-10T04:40:27.187Z,3.1
2017-12-10T04:40:53.304Z,3.01
2017-12-10T04:41:19.419Z,3.08
2017-12-10T04:41:45.549Z,3.11
2017-12-10T04:42:11.683Z,3.08
2017-12-10T04:42:37.799Z,3.11
2017-12-10T04:43:03.910Z,3.13
2017-12-10T04:43:30.027Z,3.16
2017-12-10T04:43:56.138Z,3.14
2017-12-10T04:44:22.294Z,3.14
2017-12-10T04:44:48.407Z,3.07
2017-12-10T04:45:14.523Z,3.08
2017-12-10T04:45:40.633Z,3.07
2017-12-10T04:46:06.751Z,3.05
2017-12-10T04:46:32.867Z,3
2017-12-10T04:46:58.993Z,3.08
2017-12-10T04:47:25.116Z,3.08
2017-12-10T04:47:51.253Z,3.14
2017-12-10T04:48:17.364Z,3.07
2017-12-10T04:48:43.504Z,3.05
2017-12-10T04:49:09.617Z,3.05
2017-12-10T04:49:35.726Z,3.07
2017-12-10T04:50:01.838Z,3.07
2017-12-10T04:50:27.968Z,3.13
2017-12-10T04:50:54.084Z,3.07
2017-12-10T04:51:20.194Z,3.07
2017-12-10T04:51:46.304Z,3.05
2017-12-10T04:52:12.421Z,3.04
2017-12-10T04:52:38.530Z,3.11
2017-12-10T04:53:04.646Z,3.11
2017-12-10T04:53:30.768Z,2.95
2017-12-10T04:53:56.878Z,3.05
2017-12-10T04:54:22.993Z,3.07
2017-12-10T04:54:49.097Z,3.07
2017-12-10T04:55:15.217Z,3.04
2017-12-10T04:55:41.330Z,3.01
2017-12-10T04:56:07.450Z,3.07
2017-12-10T04:56:33.562Z,3.07
2017-12-10T04:56:59.727Z,3.07
2017-12-10T04:57:25.843Z,3.13
2017-12-10T04:57:51.972Z,3.07
2017-12-10T04:58:18.085Z,2.86
2017-12-10T04:58:44.214Z,3.04
2017-12-10T04:59:10.333Z,2.92
2017-12-10T04:59:36.440Z,3.03
2017-12-10T05:00:02.575Z,3.05
2017-12-10T05:00:28.684Z,3
2017-12-10T05:00:54.804Z,3.01
2017-12-10T05:01:20.922Z,3.03
2017-12-10T05:01:47.034Z,2.98
2017-12-10T05:02:13.161Z,2.83
2017-12-10T05:02:39.272Z,2.93
2017-12-10T05:03:05.385Z,2.98
2017-12-10T05:03:31.512Z,2.93
2017-12-10T05:03:57.624Z,3
2017-12-10T05:04:23.741Z,3.05
2017-12-10T05:04:49.849Z,3.05
2017-12-10T05:05:15.974Z,3.08
2017-12-10T05:05:42.084Z,3.07
2017-12-10T05:06:08.212Z,3.07
2017-12-10T05:06:34.331Z,3.1
2017-12-10T05:07:00.444Z,3.16
2017-12-10T05:07:26.558Z,3.18
2017-12-10T05:07:52.670Z,3.14
2017-12-10T05:08:18.781Z,3.14
2017-12-10T05:08:44.899Z,3.18
2017-12-10T05:09:11.034Z,3.16
2017-12-10T05:09:37.147Z,3.14
2017-12-10T05:10:03.280Z,3.14
2017-12-10T05:10:29.417Z,3.22
2017-12-10T05:10:55.528Z,3.19
2017-12-10T05:11:21.668Z,3.28
2017-12-10T05:11:47.784Z,3.28
2017-12-10T05:12:13.895Z,3.25
2017-12-10T05:12:40.012Z,3.16
2017-12-10T05:13:06.123Z,3.16
2017-12-10T05:13:32.243Z,3.16
2017-12-10T05:13:58.373Z,3.18
2017-12-10T05:14:24.485Z,3.14
2017-12-10T05:14:50.599Z,3.22
2017-12-10T05:15:16.715Z,3.18
2017-12-10T05:15:42.832Z,3.21
2017-12-10T05:16:08.949Z,3.31
2017-12-10T05:16:35.074Z,3.23
2017-12-10T05:17:01.187Z,3.23
2017-12-10T05:17:27.305Z,3.22
2017-12-10T05:17:53.415Z,3.29
2017-12-10T05:18:19.531Z,3.25
2017-12-10T05:18:45.648Z,3.26
2017-12-10T05:19:11.752Z,3.28
2017-12-10T05:19:37.886Z,3.23
2017-12-10T05:20:04.004Z,3.23
2017-12-10T05:20:30.122Z,3.4
2017-12-10T05:20:56.258Z,3.36
2017-12-10T05:21:22.375Z,3.31
2017-12-10T05:21:48.486Z,3.21
2017-12-10T05:22:14.624Z,3.23
2017-12-10T05:22:40.733Z,3.22
2017-12-10T05:23:06.850Z,3.21
2017-12-10T05:23:32.964Z,3.22
2017-12-10T05:23:59.075Z,3.26
2017-12-10T05:24:25.211Z,3.28
2017-12-10T05:24:51.315Z,3.21
2017-12-10T05:25:17.430Z,3.18
2017-12-10T05:25:43.547Z,3.13
2017-12-10T05:26:09.666Z,3.03
2017-12-10T05:26:35.775Z,2.97
2017-12-10T05:27:01.893Z,2.92
2017-12-10T05:27:28.006Z,2.98
2017-12-10T05:27:54.116Z,3
2017-12-10T05:28:20.229Z,2.97
2017-12-10T05:28:46.343Z,3.03
2017-12-10T05:29:12.456Z,3.08
2017-12-10T05:29:38.575Z,3
2017-12-10T05:30:04.684Z,2.9
2017-12-10T05:30:30.802Z,2.85
2017-12-10T05:30:56.912Z,2.89
2017-12-10T05:31:23.029Z,2.85
2017-12-10T05:31:49.144Z,2.98
2017-12-10T05:32:15.253Z,3.01
2017-12-10T05:32:41.394Z,2.97
2017-12-10T05:33:07.504Z,2.97
2017-12-10T05:33:33.623Z,3
2017-12-10T05:33:59.731Z,2.92
2017-12-10T05:34:25.861Z,2.97
2017-12-10T05:34:51.980Z,3.08
2017-12-10T05:35:18.093Z,3.05
2017-12-10T05:35:44.230Z,3.01
2017-12-10T05:36:10.349Z,3.01
2017-12-10T05:36:36.458Z,3.1
2017-12-10T05:37:02.577Z,3.16
2017-12-10T05:37:28.689Z,3.14
2017-12-10T05:37:54.802Z,3.19
2017-12-10T05:38:20.919Z,3.1
2017-12-10T05:38:47.036Z,3.11
2017-12-10T05:39:13.143Z,3.11
2017-12-10T05:39:39.258Z,3.04
2017-12-10T05:40:05.368Z,3.08
2017-12-10T05:40:31.484Z,3.08
2017-12-10T05:40:57.607Z,3.04
2017-12-10T05:41:23.723Z,3.01
2017-12-10T05:41:49.834Z,3
2017-12-10T05:42:15.947Z,2.93
2017-12-10T05:42:42.063Z,2.93
2017-12-10T05:43:08.178Z,2.89
2017-12-10T05:43:34.293Z,2.93
2017-12-10T05:44:00.400Z,3.01
2017-12-10T05:44:26.517Z,3.03
2017-12-10T05:44:52.629Z,3.03
2017-12-10T05:45:18.740Z,3.01
2017-12-10T05:45:44.852Z,3.08
2017-12-10T05:46:10.986Z,3.18
2017-12-10T05:46:37.111Z,3.07
2017-12-10T05:47:03.214Z,3.03
2017-12-10T05:47:29.325Z,3.07
2017-12-10T05:47:55.443Z,2.97
2017-12-10T05:48:21.557Z,2.95
2017-12-10T05:48:47.671Z,2.85
2017-12-10T05:49:13.783Z,3